x

Cape Cleare - 17 Nm South Of Montague Is, Ak (46076) Wave Buoy

10:50am - Sun 29th May 2016 All times are AKDT. -8 hours from GMT.

  • Sig Wave height 2.3ft
  • Swell Direction
  • Peak Period 14s
  • Average Period 5s
  • Wind
    9mph, 11mph gusts
  • Sea Temp 51°f
  • Air Temp 51°f
  • Sea Pressure 1014.3mb
  • Cape Cleare - 17 Nm South Of Montague Is,  Ak
  • Cape Cleare - 17 Nm South Of Montague Is,  Ak

More Historic Weather Station data

Upgrade to MSW Pro to gain access to the past 30 days of data for over 8000 Wavebouys and Weather Stations around the globe.

Join Pro

Comparision Forecast

View Surf forecast
   
Sun 05/29 10:50am 2.5ft 14s 5s 9 11 mph 1014.3mb 51f 51f
9:50am 2ft 14s 5s 9 13 mph 1014.1mb 51f 51f
8:50am 2.5ft 19s  -  7 9 mph 1014.5mb 51f 51f
7:50am 2.5ft 14s 5s 9 11 mph 1014.5mb 51f 51f
6:50am 2.5ft 5s 5s 7 9 mph 1014.7mb 51f 51f
5:50am 2.5ft 5s 5s 7 9 mph 1014.6mb 51f 51f
4:50am 2.5ft 5s 5s 9 11 mph 1014.8mb 51f 51f
3:50am 2.5ft 5s 5s 9 11 mph 1015.2mb 51f 51f
2:50am 3ft 15s 5s 11
mph
1015.5mb 51f 51f
1:50am 2.5ft 5s 5s 11 13 mph 1015.5mb 51f 51f
12:50am 2.5ft 5s 5s 11 13 mph 1015.7mb 51f 51f
Sat 05/28 11:50pm 2.5ft 7s 5s 13 16 mph 1015.6mb 51f 51f
10:50pm 2.5ft 8s 5s 13 16 mph 1015.8mb 51f 51f
9:50pm 2.5ft 4s 4s 11 13 mph 1016.1mb 52f 51f
8:50pm 2.5ft 15s 4s 11 13 mph 1016mb 52f 51f
7:50pm 2.5ft 4s 4s 11 13 mph 1016mb 52f 51f
6:50pm 3ft 5s 5s 11 13 mph 1016.2mb 52f 50f
5:50pm 3ft 5s 5s 11 13 mph 1016.4mb 52f 50f
4:50pm 2.5ft 5s 5s 13 16 mph 1016.5mb 52f 50f
3:50pm 2.5ft 5s 5s 13 16 mph 1016.6mb 52f 50f
2:50pm 3ft 5s 5s 11
mph
1016.9mb 52f 50f
1:50pm 2.5ft 5s 5s 11 13 mph 1017mb 52f 50f
12:50pm 3ft 4s 4s 11 13 mph 1017.2mb 52f 50f
11:50am 2.5ft 4s 4s 16 18 mph 1016.9mb 51f 49f
10:50am 3ft 4s 4s 16 18 mph 1016.9mb 52f 49f
9:50am 2.5ft 4s 4s 16 18 mph 1016.9mb 52f 49f
8:50am 2.5ft 4s 4s 16 18 mph 1017mb 51f 49f
7:50am 2.5ft 4s 4s 13 16 mph 1017mb 52f 49f
6:50am 2.5ft 4s 4s 13 16 mph 1017.1mb 52f 49f
5:50am 2.5ft 4s 4s 13 16 mph 1017.5mb 52f 49f
4:50am 2.5ft 4s 5s 11 13 mph 1017.6mb 52f 49f
3:50am 2.5ft 7s 5s 13 16 mph 1017.6mb 52f 49f
2:50am 2.5ft 7s 5s 13 16 mph 1017.9mb 52f 49f
12:50am 2ft 7s 5s 9 11 mph 1018.6mb 52f 49f
Fri 05/27 11:50pm 2ft 7s 5s 13 16 mph 1018.4mb 52f 49f
10:50pm 1.6ft 7s 5s 9 13 mph 1018.7mb 52f 47f
9:50pm 1.6ft 7s 5s 11 13 mph 1018.3mb 53f 47f
8:50pm 1.6ft 7s 5s 9 11 mph 1018.3mb 53f 47f
7:50pm 1.6ft 13s 5s 9 11 mph 1018.2mb 53f 49f
6:50pm 1.6ft 7s 5s 9 11 mph 1018.3mb 53f 50f
5:50pm 2ft 7s 5s 7
mph
1018.6mb 53f 51f
4:50pm 2ft 7s 5s 4 7 mph 1018.8mb 53f 50f
3:50pm 2ft 7s 5s 4
mph
1018.8mb 53f 50f
2:50pm 2.5ft 7s 4s 9
mph
1019mb 51f 49f
1:50pm 2.5ft 7s 5s 11 13 mph 1018.9mb 52f 49f
12:50pm 2ft 7s 4s 13 16 mph 1019mb 52f 49f
11:50am 2ft 7s 5s 11 13 mph 1018.6mb 53f 50f
10:50am 2ft 7s 5s 9 11 mph 1018.4mb 53f 52f
9:50am 2ft 7s 5s 9 11 mph 1018.4mb 52f 52f
8:50am 1.6ft 7s 6s 11
mph
1018.4mb 52f 52f
7:50am 2ft 8s 6s 7 9 mph 1018.5mb 51f 53f
6:50am 2ft 7s 6s 7 9 mph 1018.6mb 51f 52f
5:50am 2ft 6s 5s 7 9 mph 1018.2mb 51f 52f
4:50am 2ft 7s 6s 4 7 mph 1018.2mb 51f 52f
3:50am 2.5ft 7s 6s 7
mph
1018.4mb 51f 52f
2:50am 2.5ft 7s 6s 7 9 mph 1018.6mb 52f 52f
1:50am 2ft 7s 6s 7 9 mph 1018.9mb 53f 53f
12:50am 2.5ft 7s 6s 7
mph
1019.2mb 53f 53f
Thu 05/26 11:50pm 2.5ft 8s 6s 7
mph
1019.4mb 53f 53f
10:50pm 2ft 8s 6s 7 9 mph 1019.5mb 53f 53f
9:50pm 2.5ft 7s 6s 7 9 mph 1019.6mb 53f 54f
8:50pm 2.5ft 7s 6s 7 9 mph 1019.6mb 54f 54f
7:50pm 2.5ft 7s 6s 4
mph
1019.9mb 55f 55f
6:50pm 2.5ft 6s 5s 2 4 mph 1020.2mb 55f 55f
5:50pm 2.5ft 7s 6s 2
mph
1020.5mb 54f 55f
4:50pm 2.5ft 7s 5s 2
mph
1020.8mb 55f 54f
2:50pm 2.5ft 8s 6s 2 4 mph 1021.6mb 53f 52f
1:50pm 2.5ft 8s 6s 4
mph
1021.7mb 52f 52f
12:50pm 2.5ft 8s 5s 4
mph
1021.9mb 51f 51f
11:50am 2.5ft 8s 5s 7 9 mph 1022mb 51f 51f
10:50am 2.5ft 8s 6s 7 9 mph 1022.2mb 52f 51f
9:50am 2.5ft 8s 6s 9 11 mph 1022.1mb 51f 51f
8:50am 3ft 8s 6s 9 11 mph 1021.9mb 51f 51f
7:50am 3ft 8s 6s 7 9 mph 1021.7mb 50f 51f
6:50am 3.5ft 8s 6s 2
mph
1021.6mb 50f 50f
5:50am 3ft 8s 6s 2 4 mph 1021.5mb 50f 50f
4:50am 3.5ft 8s 6s 4 7 mph 1021.3mb 50f 50f
3:50am 3.5ft 6s 6s 7
mph
1021.3mb 50f 50f
2:50am 3ft 8s 6s 7 9 mph 1021.4mb 50f 50f
1:50am 3ft 9s 6s 4
mph
1021.7mb 50f 50f
12:50am 3ft 8s 6s 7 9 mph 1021.4mb 51f 50f
Wed 05/25 11:50pm 3ft 6s 6s 7
mph
1021.2mb 51f 50f
10:50pm 3ft 6s 6s 7 9 mph 1021.3mb 51f 51f
9:50pm 3ft 6s 6s 7
mph
1021.2mb 51f 51f
8:50pm 3ft 6s 5s 9
mph
1021.1mb 50f 51f